createdAt,value
2018-09-06T00:00:18.484Z,43.40
2018-09-06T00:01:18.477Z,44.10
2018-09-06T00:02:18.476Z,44.80
2018-09-06T00:03:18.437Z,44.70
2018-09-06T00:04:18.442Z,45.40
2018-09-06T00:05:18.421Z,46.30
2018-09-06T00:06:18.402Z,45.60
2018-09-06T00:07:18.403Z,45.50
2018-09-06T00:08:18.373Z,45.00
2018-09-06T00:09:18.393Z,44.30
2018-09-06T00:10:18.346Z,44.60
2018-09-06T00:11:18.334Z,45.80
2018-09-06T00:12:18.325Z,45.80
2018-09-06T00:13:18.314Z,46.10
2018-09-06T00:14:18.292Z,46.10
2018-09-06T00:15:18.312Z,47.10
2018-09-06T00:16:18.265Z,46.80
2018-09-06T00:17:18.266Z,46.60
2018-09-06T00:18:18.237Z,46.70
2018-09-06T00:19:18.229Z,46.80
2018-09-06T00:20:18.210Z,48.50
2018-09-06T00:21:18.215Z,48.20
2018-09-06T00:22:18.183Z,49.30
2018-09-06T00:23:18.174Z,49.40
2018-09-06T00:24:18.162Z,49.70
2018-09-06T00:25:18.177Z,49.90
2018-09-06T00:26:18.129Z,47.50
2018-09-06T00:27:18.127Z,49.40
2018-09-06T00:28:18.110Z,48.90
2018-09-06T00:29:18.164Z,48.20
2018-09-06T00:30:18.078Z,49.40
2018-09-06T00:31:18.184Z,49.10
2018-09-06T00:32:18.066Z,49.60
2018-09-06T00:33:18.086Z,48.90
2018-09-06T00:34:18.068Z,51.10
2018-09-06T00:35:18.094Z,49.30
2018-09-06T00:36:18.059Z,49.70
2018-09-06T00:37:18.065Z,50.90
2018-09-06T00:38:17.990Z,51.20
2018-09-06T00:39:17.974Z,51.10
2018-09-06T00:40:17.961Z,50.70
2018-09-06T00:41:17.939Z,51.40
2018-09-06T00:42:17.934Z,51.10
2018-09-06T00:43:17.903Z,51.20
2018-09-06T00:44:17.889Z,52.30
2018-09-06T00:45:17.887Z,50.30
2018-09-06T00:46:17.858Z,50.30
2018-09-06T00:47:17.861Z,49.30
2018-09-06T00:48:17.836Z,51.50
2018-09-06T00:49:17.823Z,50.60
2018-09-06T00:50:17.803Z,50.10
2018-09-06T00:51:17.795Z,49.80
2018-09-06T00:52:17.798Z,49.70
2018-09-06T00:53:17.768Z,49.90
2018-09-06T00:54:17.755Z,49.50
2018-09-06T00:55:17.780Z,51.60
2018-09-06T00:56:17.754Z,50.40
2018-09-06T00:57:17.714Z,49.60
2018-09-06T00:58:38.715Z,49.20
2018-09-06T00:59:17.688Z,48.90
2018-09-06T01:00:17.674Z,51.00
2018-09-06T01:01:17.662Z,50.10
2018-09-06T01:02:17.663Z,50.10
2018-09-06T01:03:17.645Z,49.30
2018-09-06T01:04:17.618Z,48.90
2018-09-06T01:05:17.604Z,49.70
2018-09-06T01:06:17.608Z,48.80
2018-09-06T01:07:17.579Z,48.30
2018-09-06T01:08:17.576Z,46.90
2018-09-06T01:09:17.582Z,47.80
2018-09-06T01:10:17.539Z,47.00
2018-09-06T01:11:17.524Z,45.30
2018-09-06T01:12:17.530Z,44.10
2018-09-06T01:13:17.501Z,44.30
2018-09-06T01:14:17.503Z,43.70
2018-09-06T01:15:17.466Z,44.70
2018-09-06T01:16:17.474Z,43.90
2018-09-06T01:17:17.442Z,44.50
2018-09-06T01:18:17.433Z,43.10
2018-09-06T01:19:17.431Z,43.30
2018-09-06T01:20:17.407Z,43.90
2018-09-06T01:21:17.390Z,42.60
2018-09-06T01:22:17.382Z,42.20
2018-09-06T01:23:17.369Z,42.80
2018-09-06T01:24:17.373Z,42.70
2018-09-06T01:25:17.337Z,42.90
2018-09-06T01:26:17.319Z,41.80
2018-09-06T01:27:17.311Z,42.70
2018-09-06T01:28:17.296Z,43.90
2018-09-06T01:29:17.296Z,42.40
2018-09-06T01:30:17.265Z,41.80
2018-09-06T01:31:17.253Z,40.00
2018-09-06T01:32:17.238Z,39.90
2018-09-06T01:33:17.226Z,39.80
2018-09-06T01:34:17.216Z,41.20
2018-09-06T01:35:17.214Z,39.80
2018-09-06T01:36:17.181Z,40.40
2018-09-06T01:37:17.174Z,40.40
2018-09-06T01:38:17.173Z,40.30
2018-09-06T01:39:17.155Z,40.40
2018-09-06T01:40:17.153Z,42.70
2018-09-06T01:41:17.131Z,42.00
2018-09-06T01:42:17.107Z,44.30
2018-09-06T01:43:17.087Z,44.30
2018-09-06T01:44:17.074Z,45.50
2018-09-06T01:45:17.074Z,46.60
2018-09-06T01:46:17.050Z,45.90
2018-09-06T01:47:17.057Z,48.20
2018-09-06T01:48:17.024Z,48.70
2018-09-06T01:49:17.018Z,47.30
2018-09-06T01:50:16.992Z,48.60
2018-09-06T01:51:16.980Z,46.90
2018-09-06T01:52:16.993Z,48.10
2018-09-06T01:53:16.948Z,50.20
2018-09-06T01:54:16.939Z,52.10
2018-09-06T01:55:16.928Z,49.90
2018-09-06T01:56:16.912Z,53.10
2018-09-06T01:57:16.912Z,50.70
2018-09-06T01:58:16.880Z,49.60
2018-09-06T01:59:16.867Z,51.90
2018-09-06T02:00:16.859Z,53.10
2018-09-06T02:01:16.845Z,54.90
2018-09-06T02:02:16.848Z,53.70
2018-09-06T02:03:16.810Z,57.40
2018-09-06T02:04:16.818Z,56.60
2018-09-06T02:05:16.789Z,55.10
2018-09-06T02:06:16.768Z,54.90
2018-09-06T02:07:16.782Z,56.90
2018-09-06T02:08:16.748Z,55.90
2018-09-06T02:09:16.747Z,56.40
2018-09-06T02:10:16.721Z,55.30
2018-09-06T02:11:16.705Z,53.90
2018-09-06T02:12:16.711Z,54.20
2018-09-06T02:13:16.685Z,56.20
2018-09-06T02:14:16.680Z,53.90
2018-09-06T02:15:16.662Z,57.00
2018-09-06T02:16:16.638Z,57.80
2018-09-06T02:17:16.624Z,56.60
2018-09-06T02:18:16.620Z,57.60
2018-09-06T02:19:16.635Z,57.70
2018-09-06T02:20:16.581Z,62.10
2018-09-06T02:21:16.566Z,59.10
2018-09-06T02:22:16.574Z,59.60
2018-09-06T02:23:16.561Z,62.10
2018-09-06T02:24:16.602Z,59.60
2018-09-06T02:25:16.515Z,60.30
2018-09-06T02:26:16.525Z,58.40
2018-09-06T02:27:16.503Z,59.00
2018-09-06T02:28:16.539Z,56.50
2018-09-06T02:29:16.485Z,56.70
2018-09-06T02:30:16.504Z,57.60
2018-09-06T02:31:16.498Z,59.10
2018-09-06T02:32:16.470Z,58.20
2018-09-06T02:33:16.461Z,57.70
2018-09-06T02:34:16.492Z,61.30
2018-09-06T02:35:16.407Z,57.40
2018-09-06T02:36:16.481Z,55.60
2018-09-06T02:37:16.371Z,58.50
2018-09-06T02:38:16.350Z,60.80
2018-09-06T02:39:16.341Z,68.00
2018-09-06T02:40:16.327Z,64.80
2018-09-06T02:41:16.319Z,64.40
2018-09-06T02:42:16.300Z,64.00
2018-09-06T02:43:16.285Z,61.90
2018-09-06T02:44:16.254Z,60.60
2018-09-06T02:45:16.259Z,59.90
2018-09-06T02:46:16.225Z,64.90
2018-09-06T02:47:16.215Z,63.70
2018-09-06T02:48:16.203Z,67.90
2018-09-06T02:49:16.209Z,73.20
2018-09-06T02:50:16.166Z,65.70
2018-09-06T02:51:16.163Z,61.00
2018-09-06T02:52:16.165Z,57.40
2018-09-06T02:53:16.173Z,57.00
2018-09-06T02:54:16.118Z,59.00
2018-09-06T02:55:16.129Z,58.90
2018-09-06T02:56:16.089Z,55.10
2018-09-06T02:57:16.093Z,55.20
2018-09-06T02:58:16.067Z,46.40
2018-09-06T02:59:16.054Z,48.70
2018-09-06T03:00:16.030Z,47.60
2018-09-06T03:01:16.023Z,50.60
2018-09-06T03:02:16.017Z,50.60
2018-09-06T03:03:15.992Z,51.40
2018-09-06T03:04:15.980Z,51.40
2018-09-06T03:05:15.966Z,56.50
2018-09-06T03:06:15.949Z,54.60
2018-09-06T03:07:15.955Z,58.40
2018-09-06T03:08:15.929Z,61.70
2018-09-06T03:09:15.910Z,61.70
2018-09-06T03:10:15.894Z,63.10
2018-09-06T03:11:15.879Z,64.50
2018-09-06T03:12:15.886Z,60.00
2018-09-06T03:13:15.854Z,60.80
2018-09-06T03:14:15.847Z,61.90
2018-09-06T03:15:15.847Z,59.80
2018-09-06T03:16:15.814Z,60.20
2018-09-06T03:17:15.820Z,66.10
2018-09-06T03:18:15.781Z,70.20
2018-09-06T03:19:15.768Z,74.00
2018-09-06T03:20:15.775Z,73.40
2018-09-06T03:21:15.749Z,79.30
2018-09-06T03:22:15.732Z,77.60
2018-09-06T03:23:15.725Z,73.40
2018-09-06T03:24:15.704Z,74.80
2018-09-06T03:25:15.700Z,70.70
2018-09-06T03:26:15.674Z,72.40
2018-09-06T03:27:15.675Z,72.00
2018-09-06T03:28:15.658Z,71.30
2018-09-06T03:29:15.636Z,67.50
2018-09-06T03:30:15.614Z,66.50
2018-09-06T03:31:15.608Z,68.30
2018-09-06T03:32:15.609Z,64.50
2018-09-06T03:33:15.599Z,67.70
2018-09-06T03:34:15.559Z,67.50
2018-09-06T03:35:15.550Z,75.80
2018-09-06T03:36:15.533Z,73.80
2018-09-06T03:37:15.522Z,68.90
2018-09-06T03:38:15.527Z,64.30
2018-09-06T03:39:15.510Z,68.00
2018-09-06T03:40:15.481Z,64.80
2018-09-06T03:41:15.464Z,62.10
2018-09-06T03:42:15.450Z,63.00
2018-09-06T03:43:15.450Z,63.10
2018-09-06T03:44:15.423Z,60.20
2018-09-06T03:45:15.409Z,63.50
2018-09-06T03:46:15.415Z,63.00
2018-09-06T03:47:15.388Z,63.00
2018-09-06T03:48:15.377Z,68.50
2018-09-06T03:49:15.353Z,69.60
2018-09-06T03:50:15.369Z,70.80
2018-09-06T03:51:15.324Z,68.20
2018-09-06T03:52:15.314Z,68.90
2018-09-06T03:53:15.306Z,74.00
2018-09-06T03:54:15.288Z,69.50
2018-09-06T03:55:15.302Z,71.30
2018-09-06T03:56:15.262Z,71.90
2018-09-06T03:57:15.251Z,68.70
2018-09-06T03:58:15.234Z,73.40
2018-09-06T03:59:15.218Z,73.80
2018-09-06T04:00:15.200Z,73.60
2018-09-06T04:01:15.204Z,69.20
2018-09-06T04:02:15.173Z,69.80
2018-09-06T04:03:15.195Z,70.00
2018-09-06T04:04:15.150Z,70.00
2018-09-06T04:05:15.135Z,66.40
2018-09-06T04:06:36.131Z,69.30
2018-09-06T04:07:15.105Z,67.60
2018-09-06T04:08:15.090Z,70.40
2018-09-06T04:09:15.073Z,67.20
2018-09-06T04:10:15.060Z,69.80
2018-09-06T04:11:15.067Z,71.30
2018-09-06T04:12:15.035Z,66.20
2018-09-06T04:13:15.022Z,63.20
2018-09-06T04:14:15.008Z,63.60
2018-09-06T04:15:14.995Z,60.50
2018-09-06T04:16:14.979Z,64.50
2018-09-06T04:17:14.986Z,58.40
2018-09-06T04:18:14.951Z,61.70
2018-09-06T04:19:14.952Z,66.90
2018-09-06T04:20:14.931Z,68.80
2018-09-06T04:21:14.909Z,66.20
2018-09-06T04:22:35.988Z,68.50
2018-09-06T04:23:14.878Z,68.50
2018-09-06T04:24:14.947Z,68.70
2018-09-06T04:25:14.851Z,66.70
2018-09-06T04:26:14.834Z,70.80
2018-09-06T04:27:14.824Z,67.90
2018-09-06T04:28:14.836Z,67.20
2018-09-06T04:29:14.803Z,68.70
2018-09-06T04:30:14.787Z,67.30
2018-09-06T04:31:14.766Z,68.90
2018-09-06T04:32:14.767Z,74.40
2018-09-06T04:33:35.756Z,74.10
2018-09-06T04:34:14.726Z,68.10
2018-09-06T04:35:14.722Z,71.20
2018-09-06T04:36:14.825Z,72.60
2018-09-06T04:37:14.696Z,75.30
2018-09-06T04:38:14.676Z,70.70
2018-09-06T04:39:14.657Z,77.10
2018-09-06T04:40:14.649Z,81.30
2018-09-06T04:41:14.625Z,76.50
2018-09-06T04:42:14.609Z,79.10
2018-09-06T04:43:14.616Z,82.40
2018-09-06T04:44:14.600Z,76.10
2018-09-06T04:45:14.577Z,77.20
2018-09-06T04:46:14.564Z,77.30
2018-09-06T04:47:14.545Z,78.30
2018-09-06T04:48:14.543Z,82.20
2018-09-06T04:49:14.525Z,79.00
2018-09-06T04:50:14.500Z,73.50
2018-09-06T04:51:14.478Z,78.50
2018-09-06T04:52:14.479Z,72.70
2018-09-06T04:53:14.462Z,73.30
2018-09-06T04:54:14.441Z,71.20
2018-09-06T04:55:14.479Z,77.00
2018-09-06T04:56:14.417Z,76.90
2018-09-06T04:57:14.431Z,75.30
2018-09-06T04:58:14.403Z,74.20
2018-09-06T04:59:14.387Z,73.60
2018-09-06T05:00:14.353Z,74.70
2018-09-06T05:01:14.345Z,71.00
2018-09-06T05:02:14.334Z,73.10
2018-09-06T05:03:14.542Z,68.00
2018-09-06T05:04:14.319Z,66.60
2018-09-06T05:05:14.283Z,66.10
2018-09-06T05:06:14.280Z,71.30
2018-09-06T05:07:14.266Z,71.30
2018-09-06T05:08:14.269Z,69.40
2018-09-06T05:09:14.256Z,70.40
2018-09-06T05:10:14.227Z,69.60
2018-09-06T05:11:14.201Z,66.90
2018-09-06T05:12:14.186Z,66.80
2018-09-06T05:13:14.246Z,70.50
2018-09-06T05:14:15.175Z,71.30
2018-09-06T05:15:14.149Z,72.90
2018-09-06T05:16:15.124Z,72.00
2018-09-06T05:17:14.125Z,72.30
2018-09-06T05:18:14.182Z,74.50
2018-09-06T05:19:14.269Z,76.50
2018-09-06T05:20:14.108Z,74.80
2018-09-06T05:21:14.173Z,77.90
2018-09-06T05:22:14.120Z,69.60
2018-09-06T05:23:18.081Z,71.40
2018-09-06T05:24:16.621Z,93.00
2018-09-06T05:25:16.588Z,73.60
2018-09-06T05:26:14.066Z,75.00
2018-09-06T05:27:14.643Z,81.30
2018-09-06T05:28:14.003Z,80.50
2018-09-06T05:29:13.995Z,76.20
2018-09-06T05:30:13.973Z,77.40
2018-09-06T05:31:13.959Z,82.80
2018-09-06T05:32:13.949Z,79.10
2018-09-06T05:33:13.919Z,77.50
2018-09-06T05:34:13.914Z,76.70
2018-09-06T05:35:14.019Z,74.60
2018-09-06T05:36:13.989Z,78.30
2018-09-06T05:37:13.882Z,77.00
2018-09-06T05:38:14.162Z,84.00
2018-09-06T05:39:13.832Z,84.20
2018-09-06T05:40:13.823Z,84.70
2018-09-06T05:41:13.810Z,81.60
2018-09-06T05:42:13.784Z,84.20
2018-09-06T05:43:13.762Z,82.50
2018-09-06T05:44:13.744Z,89.10
2018-09-06T05:45:13.739Z,92.30
2018-09-06T05:46:13.719Z,84.50
2018-09-06T05:47:13.714Z,93.90
2018-09-06T05:48:13.677Z,135.50
2018-09-06T05:49:13.666Z,96.10
2018-09-06T05:50:13.652Z,93.10
2018-09-06T05:51:13.633Z,88.20
2018-09-06T05:52:13.651Z,89.30
2018-09-06T05:53:13.614Z,95.30
2018-09-06T05:54:13.592Z,88.30
2018-09-06T05:55:13.592Z,90.80
2018-09-06T05:56:13.567Z,96.60
2018-09-06T05:57:13.578Z,97.10
2018-09-06T05:58:13.552Z,105.00
2018-09-06T05:59:13.529Z,99.70
2018-09-06T06:00:13.526Z,89.40
2018-09-06T06:01:13.494Z,90.00
2018-09-06T06:02:13.491Z,90.40
2018-09-06T06:03:13.492Z,84.90
2018-09-06T06:04:13.480Z,86.10
2018-09-06T06:05:14.106Z,85.50
2018-09-06T06:06:13.424Z,86.30
2018-09-06T06:07:13.418Z,83.10
2018-09-06T06:08:13.418Z,85.50
2018-09-06T06:09:13.384Z,82.20
2018-09-06T06:10:13.391Z,84.70
2018-09-06T06:11:13.358Z,86.00
2018-09-06T06:12:13.346Z,80.60
2018-09-06T06:13:13.334Z,87.50
2018-09-06T06:14:13.358Z,89.10
2018-09-06T06:15:13.308Z,89.00
2018-09-06T06:16:13.295Z,97.20
2018-09-06T06:17:13.282Z,94.30
2018-09-06T06:18:13.264Z,93.70
2018-09-06T06:19:13.253Z,91.40
2018-09-06T06:20:13.273Z,88.70
2018-09-06T06:21:13.230Z,89.30
2018-09-06T06:22:13.264Z,84.50
2018-09-06T06:23:13.208Z,92.80
2018-09-06T06:24:13.193Z,93.10
2018-09-06T06:25:13.163Z,99.70
2018-09-06T06:26:13.179Z,118.80
2018-09-06T06:27:13.157Z,100.60
2018-09-06T06:28:13.122Z,97.50
2018-09-06T06:29:13.114Z,93.70
2018-09-06T06:30:13.674Z,99.60
2018-09-06T06:31:13.147Z,93.80
2018-09-06T06:32:13.153Z,96.50
2018-09-06T06:33:13.662Z,98.00
2018-09-06T06:34:13.042Z,99.60
2018-09-06T06:35:13.029Z,98.60
2018-09-06T06:36:13.030Z,101.10
2018-09-06T06:37:13.002Z,105.10
2018-09-06T06:38:12.984Z,101.80
2018-09-06T06:39:12.972Z,97.80
2018-09-06T06:40:12.958Z,97.80
2018-09-06T06:41:12.988Z,96.10
2018-09-06T06:42:12.933Z,90.60
2018-09-06T06:43:12.922Z,87.70
2018-09-06T06:44:12.905Z,89.10
2018-09-06T06:45:12.890Z,89.40
2018-09-06T06:46:12.873Z,87.70
2018-09-06T06:47:12.881Z,88.80
2018-09-06T06:48:12.864Z,91.90
2018-09-06T06:49:12.841Z,90.90
2018-09-06T06:50:12.894Z,87.80
2018-09-06T06:51:12.825Z,90.60
2018-09-06T06:52:12.812Z,90.00
2018-09-06T06:53:12.778Z,89.20
2018-09-06T06:54:12.765Z,86.40
2018-09-06T06:55:12.759Z,88.50
2018-09-06T06:56:12.766Z,85.40
2018-09-06T06:57:12.743Z,93.60
2018-09-06T06:58:12.719Z,88.50
2018-09-06T06:59:12.697Z,86.40
2018-09-06T07:00:12.683Z,85.40
2018-09-06T07:01:12.666Z,85.70
2018-09-06T07:02:12.670Z,86.30
2018-09-06T07:03:12.640Z,84.90
2018-09-06T07:04:12.653Z,83.70
2018-09-06T07:05:12.620Z,82.90
2018-09-06T07:06:12.602Z,83.40
2018-09-06T07:07:12.654Z,76.10
2018-09-06T07:08:33.590Z,74.60
2018-09-06T07:09:12.564Z,74.20
2018-09-06T07:10:12.563Z,80.60
2018-09-06T07:11:12.554Z,73.10
2018-09-06T07:12:12.534Z,72.80
2018-09-06T07:13:12.511Z,68.70
2018-09-06T07:14:12.508Z,69.50
2018-09-06T07:15:12.484Z,70.80
2018-09-06T07:16:12.470Z,69.10
2018-09-06T07:17:12.458Z,72.20
2018-09-06T07:18:12.498Z,72.90
2018-09-06T07:19:12.461Z,73.20
2018-09-06T07:20:12.475Z,74.30
2018-09-06T07:21:12.415Z,77.10
2018-09-06T07:22:12.406Z,77.70
2018-09-06T07:23:12.373Z,73.90
2018-09-06T07:24:12.375Z,74.20
2018-09-06T07:25:12.370Z,77.80
2018-09-06T07:26:12.332Z,73.00
2018-09-06T07:27:12.326Z,74.10
2018-09-06T07:28:12.315Z,67.80
2018-09-06T07:29:12.289Z,67.00
2018-09-06T07:30:12.438Z,68.60
2018-09-06T07:31:12.269Z,65.10
2018-09-06T07:32:12.261Z,72.20
2018-09-06T07:33:13.197Z,70.40
2018-09-06T07:34:13.416Z,71.40
2018-09-06T07:35:18.620Z,73.60
2018-09-06T07:36:12.423Z,72.30
2018-09-06T07:37:13.276Z,72.10
2018-09-06T07:39:58.459Z,70.20
2018-09-06T07:50:57.240Z,56.00
2018-09-06T07:51:57.705Z,62.30
2018-09-06T07:53:16.088Z,65.90
2018-09-06T07:53:57.078Z,69.20
2018-09-06T07:54:57.060Z,65.40
2018-09-06T07:55:57.058Z,66.60
2018-09-06T07:56:57.021Z,65.60
2018-09-06T07:57:57.033Z,68.00
2018-09-06T07:58:57.017Z,68.50
2018-09-06T07:59:56.984Z,70.20
2018-09-06T08:00:56.971Z,66.40
2018-09-06T08:01:56.972Z,66.50
2018-09-06T08:02:56.978Z,69.70
2018-09-06T08:03:56.953Z,70.30
2018-09-06T08:04:56.919Z,74.90
2018-09-06T08:05:56.904Z,77.00
2018-09-06T08:06:56.905Z,73.60
2018-09-06T08:07:56.892Z,78.80
2018-09-06T08:08:56.872Z,69.00
2018-09-06T08:09:56.852Z,69.30
2018-09-06T08:10:56.856Z,68.70
2018-09-06T08:11:56.838Z,73.80
2018-09-06T08:12:56.832Z,77.50
2018-09-06T08:13:56.820Z,77.70
2018-09-06T08:14:56.807Z,78.90
2018-09-06T08:15:56.772Z,78.30
2018-09-06T08:16:56.756Z,74.50
2018-09-06T08:17:56.771Z,75.20
2018-09-06T08:18:56.766Z,72.70
2018-09-06T08:19:56.724Z,80.30
2018-09-06T08:20:56.704Z,75.50
2018-09-06T08:21:56.677Z,73.10
2018-09-06T08:22:56.682Z,73.80
2018-09-06T08:23:56.670Z,77.20
2018-09-06T08:24:56.643Z,79.00
2018-09-06T08:25:56.624Z,76.00
2018-09-06T08:26:56.609Z,70.50
2018-09-06T08:27:56.605Z,75.50
2018-09-06T08:28:56.607Z,67.70
2018-09-06T08:29:56.585Z,72.10
2018-09-06T08:30:56.677Z,75.40
2018-09-06T08:31:56.551Z,70.10
2018-09-06T08:32:56.540Z,68.50
2018-09-06T08:33:56.534Z,72.30
2018-09-06T08:34:56.502Z,65.60
2018-09-06T08:35:56.491Z,60.80
2018-09-06T08:36:56.547Z,60.40
2018-09-06T08:37:56.479Z,63.60
2018-09-06T08:38:56.480Z,63.30
2018-09-06T08:39:56.439Z,65.90
2018-09-06T08:40:56.435Z,64.50
2018-09-06T08:41:56.404Z,64.20
2018-09-06T08:42:56.396Z,63.70
2018-09-06T08:43:56.422Z,59.90
2018-09-06T08:44:56.371Z,60.70
2018-09-06T08:45:56.368Z,60.50
2018-09-06T08:46:56.343Z,61.20
2018-09-06T08:47:56.329Z,59.10
2018-09-06T08:48:56.325Z,60.60
2018-09-06T08:49:56.318Z,55.70
2018-09-06T08:50:56.283Z,58.30
2018-09-06T08:51:56.317Z,60.50
2018-09-06T08:52:56.255Z,57.00
2018-09-06T08:53:56.242Z,58.00
2018-09-06T08:55:17.243Z,59.30
2018-09-06T08:55:56.219Z,58.40
2018-09-06T08:56:56.201Z,59.80
2018-09-06T08:57:56.207Z,59.10
2018-09-06T08:58:56.196Z,55.20
2018-09-06T08:59:56.177Z,55.50
2018-09-06T09:00:56.153Z,57.10
2018-09-06T09:01:56.163Z,54.10
2018-09-06T09:02:56.311Z,45.20
2018-09-06T09:03:56.107Z,46.50
2018-09-06T09:04:56.119Z,46.90
2018-09-06T09:05:56.113Z,46.40
2018-09-06T09:06:56.068Z,49.00
2018-09-06T09:07:56.058Z,50.90
2018-09-06T09:08:56.060Z,50.70
2018-09-06T09:09:56.045Z,48.90
2018-09-06T09:10:56.020Z,49.00
2018-09-06T09:11:56.009Z,48.80
2018-09-06T09:12:56.012Z,53.40
2018-09-06T09:13:55.993Z,52.10
2018-09-06T09:14:55.988Z,56.60
2018-09-06T09:15:55.961Z,55.50
2018-09-06T09:16:55.943Z,51.00
2018-09-06T09:17:55.924Z,48.10
2018-09-06T09:18:55.943Z,50.50
2018-09-06T09:19:55.899Z,53.00
2018-09-06T09:20:55.906Z,51.20
2018-09-06T09:21:55.908Z,48.80
2018-09-06T09:22:55.870Z,46.90
2018-09-06T09:23:55.846Z,51.10
2018-09-06T09:24:55.854Z,52.30
2018-09-06T09:25:55.835Z,50.30
2018-09-06T09:26:55.821Z,45.50
2018-09-06T09:27:55.797Z,47.60
2018-09-06T09:28:55.797Z,45.30
2018-09-06T09:29:55.767Z,45.00
2018-09-06T09:30:55.769Z,44.40
2018-09-06T09:31:55.766Z,50.30
2018-09-06T09:32:55.733Z,51.50
2018-09-06T09:33:55.715Z,50.30
2018-09-06T09:34:55.703Z,47.60
2018-09-06T09:35:55.745Z,46.60
2018-09-06T09:36:55.693Z,49.70
2018-09-06T09:37:55.663Z,47.70
2018-09-06T09:38:55.661Z,43.50
2018-09-06T09:39:55.651Z,47.60
2018-09-06T09:40:55.626Z,48.30
2018-09-06T09:41:55.622Z,47.70
2018-09-06T09:42:55.611Z,45.70
2018-09-06T09:43:55.589Z,45.60
2018-09-06T09:44:55.571Z,46.10
2018-09-06T09:47:48.611Z,46.70
2018-09-06T09:48:27.580Z,45.20
2018-09-06T09:49:27.604Z,43.90
2018-09-06T09:50:48.617Z,42.30
2018-09-06T09:51:27.563Z,40.00
2018-09-06T09:52:27.520Z,43.50
2018-09-06T09:53:27.525Z,45.00
2018-09-06T09:54:27.493Z,45.60
2018-09-06T09:55:27.490Z,44.70
2018-09-06T09:56:27.465Z,44.30
2018-09-06T09:57:27.451Z,45.30
2018-09-06T09:58:27.459Z,47.10
2018-09-06T09:59:27.422Z,45.20
2018-09-06T10:00:27.408Z,42.90
2018-09-06T10:01:27.411Z,48.40
2018-09-06T10:02:27.385Z,48.50
2018-09-06T10:03:27.385Z,48.60
2018-09-06T10:04:27.372Z,47.10
2018-09-06T10:05:29.207Z,50.50
2018-09-06T10:06:27.488Z,49.30
2018-09-06T10:07:27.354Z,47.40
2018-09-06T10:08:27.363Z,47.00
2018-09-06T10:09:27.292Z,46.10
2018-09-06T10:10:27.309Z,47.60
2018-09-06T10:11:27.265Z,49.50
2018-09-06T10:12:27.259Z,50.90
2018-09-06T10:13:27.319Z,52.10
2018-09-06T10:14:27.237Z,51.80
2018-09-06T10:15:27.211Z,56.20
2018-09-06T10:16:27.197Z,53.40
2018-09-06T10:17:27.192Z,55.00
2018-09-06T10:18:27.205Z,53.80
2018-09-06T10:19:27.154Z,60.90
2018-09-06T10:20:27.159Z,62.20
2018-09-06T10:21:27.133Z,58.10
2018-09-06T10:22:27.115Z,62.30
2018-09-06T10:23:27.117Z,62.50
2018-09-06T10:24:27.097Z,65.20
2018-09-06T10:25:27.086Z,67.00
2018-09-06T10:26:27.089Z,68.70
2018-09-06T10:27:27.055Z,68.00
2018-09-06T10:28:27.037Z,65.80
2018-09-06T10:29:27.024Z,69.80
2018-09-06T10:30:27.024Z,75.00
2018-09-06T10:31:27.027Z,75.70
2018-09-06T10:32:26.979Z,77.30
2018-09-06T10:33:26.964Z,75.50
2018-09-06T10:34:26.954Z,68.50
2018-09-06T10:35:26.978Z,73.30
2018-09-06T10:36:26.921Z,68.50
2018-09-06T10:37:26.933Z,73.40
2018-09-06T10:38:26.894Z,67.10
2018-09-06T10:39:26.973Z,66.40
2018-09-06T10:40:26.934Z,69.70
2018-09-06T10:41:26.884Z,69.40
2018-09-06T10:42:26.845Z,69.80
2018-09-06T10:43:26.833Z,73.20
2018-09-06T10:44:26.822Z,80.50
2018-09-06T10:45:26.796Z,83.30
2018-09-06T10:46:26.795Z,72.40
2018-09-06T10:47:26.790Z,72.90
2018-09-06T10:48:26.758Z,73.80
2018-09-06T10:49:26.742Z,78.50
2018-09-06T10:50:26.741Z,82.50
2018-09-06T10:51:26.725Z,77.60
2018-09-06T10:52:26.725Z,76.60
2018-09-06T10:53:26.693Z,77.10
2018-09-06T10:54:26.688Z,78.80
2018-09-06T10:55:26.667Z,77.90
2018-09-06T10:56:26.647Z,86.40
2018-09-06T10:57:47.650Z,83.30
2018-09-06T10:58:26.623Z,85.40
2018-09-06T10:59:26.625Z,83.10
2018-09-06T11:00:26.609Z,81.30
2018-09-06T11:01:26.605Z,81.60
2018-09-06T11:02:26.639Z,80.40
2018-09-06T11:03:26.554Z,84.00
2018-09-06T11:04:26.552Z,77.30
2018-09-06T11:05:26.532Z,78.70
2018-09-06T11:06:26.522Z,81.60
2018-09-06T11:07:26.495Z,83.10
2018-09-06T11:08:26.593Z,79.00
2018-09-06T11:09:26.490Z,74.90
2018-09-06T11:10:26.455Z,75.30
2018-09-06T11:11:26.447Z,74.40
2018-09-06T11:12:26.434Z,74.70
2018-09-06T11:13:26.444Z,75.20
2018-09-06T11:14:26.413Z,67.10
2018-09-06T11:15:26.395Z,64.50
2018-09-06T11:16:26.375Z,70.10
2018-09-06T11:17:26.362Z,69.50
2018-09-06T11:18:26.369Z,72.50
2018-09-06T11:19:26.337Z,70.20
2018-09-06T11:20:26.343Z,70.50
2018-09-06T11:21:26.374Z,74.60
2018-09-06T11:22:26.501Z,78.30
2018-09-06T11:23:26.319Z,78.40
2018-09-06T11:24:26.275Z,76.00
2018-09-06T11:25:26.271Z,75.00
2018-09-06T11:26:26.244Z,79.70
2018-09-06T11:27:26.289Z,72.10
2018-09-06T11:28:26.216Z,74.90
2018-09-06T11:29:26.223Z,68.70
2018-09-06T11:30:26.191Z,72.20
2018-09-06T11:31:26.182Z,75.40
2018-09-06T11:32:26.169Z,77.30
2018-09-06T11:33:26.268Z,80.60
2018-09-06T11:34:26.153Z,75.50
2018-09-06T11:35:26.131Z,73.00
2018-09-06T11:36:26.120Z,78.00
2018-09-06T11:37:26.131Z,80.50
2018-09-06T11:38:26.085Z,83.50
2018-09-06T11:39:40.799Z,83.30
2018-09-06T11:40:26.076Z,82.10
2018-09-06T11:41:26.044Z,80.10
2018-09-06T11:42:26.031Z,80.20
2018-09-06T11:43:26.024Z,78.50
2018-09-06T11:44:26.004Z,74.20
2018-09-06T11:45:26.025Z,75.80
2018-09-06T11:46:25.981Z,83.10
2018-09-06T11:47:26.094Z,85.20
2018-09-06T11:48:25.955Z,80.70
2018-09-06T11:49:25.953Z,80.20
2018-09-06T11:50:25.967Z,78.70
2018-09-06T11:51:28.753Z,84.60
2018-09-06T11:52:26.774Z,82.70
2018-09-06T11:53:27.776Z,85.20
2018-09-06T11:54:25.890Z,77.60
2018-09-06T11:55:25.892Z,78.70
2018-09-06T11:56:25.863Z,76.80
2018-09-06T11:57:25.842Z,79.00
2018-09-06T11:58:25.837Z,84.70
2018-09-06T11:59:25.811Z,86.90
2018-09-06T12:00:25.800Z,80.70
2018-09-06T12:01:25.796Z,84.60
2018-09-06T12:02:25.774Z,87.90
2018-09-06T12:03:25.754Z,84.60
2018-09-06T12:04:25.752Z,78.00
2018-09-06T12:05:25.736Z,79.10
2018-09-06T12:06:25.722Z,84.10
2018-09-06T12:07:25.735Z,78.40
2018-09-06T12:08:25.712Z,69.90
2018-09-06T12:09:25.678Z,73.10
2018-09-06T12:10:25.678Z,75.50
2018-09-06T12:11:25.658Z,68.60
2018-09-06T12:12:25.657Z,68.40
2018-09-06T12:13:25.642Z,64.50
2018-09-06T12:14:25.617Z,71.00
2018-09-06T12:15:25.611Z,71.60
2018-09-06T12:16:25.603Z,65.90
2018-09-06T12:17:25.611Z,69.30
2018-09-06T12:18:25.572Z,65.70
2018-09-06T12:19:25.620Z,65.90
2018-09-06T12:20:25.547Z,70.10
2018-09-06T12:21:25.537Z,66.60
2018-09-06T12:22:25.573Z,71.50
2018-09-06T12:23:25.530Z,60.60
2018-09-06T12:24:25.521Z,63.10
2018-09-06T12:25:25.595Z,67.00
2018-09-06T12:26:25.486Z,67.10
2018-09-06T12:27:25.487Z,68.70
2018-09-06T12:28:25.450Z,66.40
2018-09-06T12:29:25.442Z,65.20
2018-09-06T12:30:25.435Z,59.50
2018-09-06T12:31:25.415Z,59.60
2018-09-06T12:32:25.487Z,64.20
2018-09-06T12:33:25.455Z,67.60
2018-09-06T12:34:25.388Z,68.30
2018-09-06T12:35:25.391Z,59.00
2018-09-06T12:36:25.370Z,62.90
2018-09-06T12:37:25.356Z,63.30
2018-09-06T12:38:25.359Z,62.70
2018-09-06T12:39:25.352Z,65.50
2018-09-06T12:40:25.318Z,65.90
2018-09-06T12:41:25.321Z,62.20
2018-09-06T12:42:25.313Z,62.10
2018-09-06T12:43:25.308Z,61.90
2018-09-06T12:44:25.268Z,62.10
2018-09-06T12:45:25.254Z,57.20
2018-09-06T12:46:25.266Z,56.80
2018-09-06T12:47:25.263Z,59.00
2018-09-06T12:48:25.245Z,55.50
2018-09-06T12:49:25.208Z,55.10
2018-09-06T12:50:25.221Z,58.20
2018-09-06T12:51:25.192Z,56.80
2018-09-06T12:52:25.181Z,54.50
2018-09-06T12:53:25.222Z,51.60
2018-09-06T12:54:25.186Z,53.50
2018-09-06T12:55:25.145Z,55.00
2018-09-06T12:56:25.134Z,54.60
2018-09-06T12:57:25.113Z,54.50
2018-09-06T12:58:25.118Z,56.40
2018-09-06T12:59:25.144Z,59.00
2018-09-06T13:00:25.095Z,58.20
2018-09-06T13:01:25.078Z,56.50
2018-09-06T13:02:25.055Z,51.50
2018-09-06T13:03:25.057Z,53.00
2018-09-06T13:04:25.056Z,55.00
2018-09-06T13:05:25.032Z,52.30